CheckWX is a tool to help pilots better visualize weather data.  It is not intended as a substitute for an official pre-flight weather briefing.

04:38:03 UTC

KMRB TAF
Eastern Wv Regional / Shepherd Field Airport
Martinsburg, West Virginia, USA
KMRB 162322Z 1700/1724 04004KT P6SM BKN070 FM170600 02005KT P6SM VCSH BKN025 FM171300 02006KT P6SM BKN040 FM171700 04004KT P6SM SCT070

Sep-17@
00:00 UTC

Sep-17 @ 00:00 UTC

Sep-17@
06:00 UTC

Sep-17 @ 06:00 UTC

KMRB 162322Z 1700/1724 04004KT P6SM BKN070
Wind
  • 040° at 4 KTS
Cloud Levels
  • Broken at 7,000' AGL

Sep-17@
06:00 UTC

Sep-17 @ 06:00 UTC

Sep-17@
13:00 UTC

Sep-17 @ 13:00 UTC

FM170600 02005KT P6SM VCSH BKN025

From

From Standard forecast or significant change

Wind
  • 020° at 5 KTS
Cloud Levels
  • Broken at 2,500' AGL

Sep-17@
13:00 UTC

Sep-17 @ 13:00 UTC

Sep-17@
17:00 UTC

Sep-17 @ 17:00 UTC

FM171300 02006KT P6SM BKN040

From

From Standard forecast or significant change

Wind
  • 020° at 6 KTS
Cloud Levels
  • Broken at 4,000' AGL

Sep-17@
17:00 UTC

Sep-17 @ 17:00 UTC

Sep-18@
00:00 UTC

Sep-18 @ 00:00 UTC

FM171700 04004KT P6SM SCT070

From

From Standard forecast or significant change

Wind
  • 040° at 4 KTS
Cloud Levels
  • Scattered at 7,000' AGL